createdAt,value
2022-09-07T00:00:55.652Z,60.20
2022-09-07T00:03:22.198Z,60.27
2022-09-07T00:05:49.448Z,60.32
2022-09-07T00:08:16.477Z,60.27
2022-09-07T00:10:50.710Z,60.49
2022-09-07T00:13:17.034Z,60.56
2022-09-07T00:15:44.792Z,60.48
2022-09-07T00:18:11.227Z,60.47
2022-09-07T00:20:37.567Z,60.48
2022-09-07T00:23:03.948Z,60.76
2022-09-07T00:25:32.048Z,60.47
2022-09-07T00:27:59.057Z,59.81
2022-09-07T00:30:25.404Z,60.58
2022-09-07T00:32:53.054Z,60.08
2022-09-07T00:35:19.383Z,58.98
2022-09-07T00:37:45.717Z,59.64
2022-09-07T00:40:12.292Z,60.28
2022-09-07T00:42:38.668Z,60.34
2022-09-07T00:45:07.800Z,60.15
2022-09-07T00:47:37.386Z,59.93
2022-09-07T00:50:07.766Z,59.89
2022-09-07T00:52:35.164Z,60.26
2022-09-07T00:55:06.158Z,60.16
2022-09-07T00:57:33.531Z,60.04
2022-09-07T01:00:00.084Z,60.11
2022-09-07T01:02:26.594Z,60.38
2022-09-07T01:04:55.063Z,60.60
2022-09-07T01:07:23.046Z,60.81
2022-09-07T01:09:49.664Z,60.81
2022-09-07T01:12:16.119Z,61.00
2022-09-07T01:14:44.620Z,60.60
2022-09-07T01:17:15.349Z,59.70
2022-09-07T01:19:56.175Z,60.03
2022-09-07T01:22:32.145Z,60.46
2022-09-07T01:25:02.929Z,59.67
2022-09-07T01:27:45.332Z,60.20
2022-09-07T01:30:13.151Z,60.52
2022-09-07T01:32:46.520Z,60.23
2022-09-07T01:35:20.160Z,60.29
2022-09-07T01:37:49.332Z,60.02
2022-09-07T01:40:19.654Z,60.18
2022-09-07T01:42:51.232Z,60.34
2022-09-07T01:45:19.757Z,60.34
2022-09-07T01:47:48.545Z,60.41
2022-09-07T01:50:17.131Z,60.48
2022-09-07T01:52:47.180Z,60.63
2022-09-07T01:55:16.603Z,60.98
2022-09-07T01:57:45.131Z,61.24
2022-09-07T02:00:14.652Z,60.62
2022-09-07T02:02:44.346Z,60.94
2022-09-07T02:05:13.337Z,60.43
2022-09-07T02:07:42.279Z,60.46
2022-09-07T02:10:10.512Z,59.87
2022-09-07T02:12:40.332Z,59.57
2022-09-07T02:15:10.663Z,60.58
2022-09-07T02:17:41.495Z,60.73
2022-09-07T02:20:09.666Z,60.45
2022-09-07T02:22:38.730Z,60.25
2022-09-07T02:25:07.241Z,60.21
2022-09-07T02:27:35.587Z,60.08
2022-09-07T02:30:01.934Z,60.28
2022-09-07T02:32:28.285Z,60.56
2022-09-07T02:34:55.989Z,60.33
2022-09-07T02:37:22.661Z,60.40
2022-09-07T02:39:49.095Z,60.64
2022-09-07T02:42:15.499Z,60.51
2022-09-07T02:44:42.726Z,60.63
2022-09-07T02:47:18.973Z,60.87
2022-09-07T02:49:54.047Z,60.55
2022-09-07T02:52:27.616Z,59.42
2022-09-07T02:55:00.094Z,60.28
2022-09-07T02:57:34.871Z,59.94
2022-09-07T03:00:04.700Z,59.61
2022-09-07T03:02:34.402Z,59.52
2022-09-07T03:05:02.705Z,60.51
2022-09-07T03:07:35.773Z,60.04
2022-09-07T03:10:04.066Z,60.06
2022-09-07T03:12:38.320Z,60.10
2022-09-07T03:15:05.071Z,60.05
2022-09-07T03:17:31.604Z,60.07
2022-09-07T03:19:58.034Z,60.51
2022-09-07T03:22:24.508Z,60.42
2022-09-07T03:24:52.255Z,60.50
2022-09-07T03:27:18.803Z,60.28
2022-09-07T03:29:45.137Z,60.44
2022-09-07T03:32:11.493Z,60.34
2022-09-07T03:34:37.821Z,60.95
2022-09-07T03:37:04.212Z,59.80
2022-09-07T03:39:30.584Z,60.20
2022-09-07T03:41:58.277Z,60.19
2022-09-07T03:44:24.620Z,60.63
2022-09-07T03:46:50.971Z,59.75
2022-09-07T03:49:17.397Z,59.09
2022-09-07T03:51:43.753Z,60.93
2022-09-07T03:54:10.084Z,60.11
2022-09-07T03:56:36.425Z,59.98
2022-09-07T03:59:04.171Z,59.72
2022-09-07T04:01:30.712Z,59.88
2022-09-07T04:04:02.003Z,59.83
2022-09-07T04:06:29.229Z,60.05
2022-09-07T04:08:55.544Z,60.25
2022-09-07T04:11:22.104Z,60.48
2022-09-07T04:13:48.464Z,60.30
2022-09-07T04:16:17.307Z,60.01
2022-09-07T04:18:44.108Z,60.69
2022-09-07T04:21:11.042Z,60.66
2022-09-07T04:23:37.991Z,59.91
2022-09-07T04:26:04.383Z,59.61
2022-09-07T04:28:30.800Z,59.39
2022-09-07T04:30:59.602Z,58.79
2022-09-07T04:33:27.385Z,59.83
2022-09-07T04:35:53.717Z,60.00
2022-09-07T04:38:20.041Z,59.72
2022-09-07T04:40:46.391Z,59.33
2022-09-07T04:43:12.711Z,59.29
2022-09-07T04:45:39.457Z,59.95
2022-09-07T04:48:05.887Z,59.86
2022-09-07T04:50:33.538Z,59.70
2022-09-07T04:52:59.949Z,60.22
2022-09-07T04:55:26.282Z,60.06
2022-09-07T04:57:52.632Z,59.83
2022-09-07T05:00:19.024Z,60.18
2022-09-07T05:02:45.502Z,60.42
2022-09-07T05:05:11.834Z,59.12
2022-09-07T05:07:39.508Z,59.85
2022-09-07T05:10:05.960Z,59.79
2022-09-07T05:12:32.321Z,58.98
2022-09-07T05:14:58.665Z,59.62
2022-09-07T05:17:25.003Z,59.75
2022-09-07T05:19:51.326Z,60.52
2022-09-07T05:22:17.664Z,59.93
2022-09-07T05:24:46.819Z,59.56
2022-09-07T05:27:13.162Z,59.51
2022-09-07T05:32:25.803Z,62.49
2022-09-07T05:34:53.014Z,62.35
2022-09-07T05:37:19.715Z,61.67
2022-09-07T05:39:47.346Z,61.47
2022-09-07T05:42:13.708Z,61.16
2022-09-07T05:47:09.329Z,60.95
2022-09-07T05:49:35.671Z,61.05
2022-09-07T05:52:02.172Z,60.18
2022-09-07T05:54:28.534Z,59.02
2022-09-07T05:56:56.209Z,60.17
2022-09-07T05:59:22.546Z,59.44
2022-09-07T06:01:49.088Z,58.94
2022-09-07T06:04:15.531Z,58.45
2022-09-07T06:06:43.424Z,60.42
2022-09-07T06:09:14.345Z,61.54
2022-09-07T06:11:40.690Z,61.81
2022-09-07T06:14:08.317Z,62.33
2022-09-07T06:16:34.732Z,62.43
2022-09-07T06:19:04.664Z,62.60
2022-09-07T06:21:30.980Z,62.49
2022-09-07T06:23:57.314Z,62.70
2022-09-07T06:26:23.667Z,63.05
2022-09-07T06:28:52.855Z,63.40
2022-09-07T06:31:23.474Z,63.66
2022-09-07T06:33:50.313Z,63.66
2022-09-07T06:36:17.669Z,63.43
2022-09-07T06:38:44.511Z,63.72
2022-09-07T06:43:59.516Z,63.24
2022-09-07T06:49:13.528Z,63.86
2022-09-07T06:51:39.869Z,63.06
2022-09-07T06:56:52.589Z,62.71
2022-09-07T06:59:19.270Z,63.21
2022-09-07T07:01:46.951Z,63.31
2022-09-07T07:04:13.721Z,63.51
2022-09-07T07:06:40.319Z,63.62
2022-09-07T07:09:07.931Z,63.97
2022-09-07T07:11:34.796Z,63.73
2022-09-07T07:14:01.208Z,63.68
2022-09-07T07:16:27.620Z,64.19
2022-09-07T07:18:55.914Z,62.76
2022-09-07T07:21:22.580Z,62.13
2022-09-07T07:23:49.717Z,64.03
2022-09-07T07:26:17.201Z,63.59
2022-09-07T07:31:30.269Z,62.78
2022-09-07T07:33:58.049Z,62.46
2022-09-07T07:36:25.669Z,62.16
2022-09-07T07:39:00.317Z,61.75
2022-09-07T07:44:15.102Z,63.15
2022-09-07T07:46:41.543Z,63.36
2022-09-07T07:49:09.262Z,63.31
2022-09-07T07:52:49.914Z,63.48
2022-09-07T07:54:21.958Z,63.42
2022-09-07T07:56:48.300Z,63.20
2022-09-07T07:59:15.961Z,63.26
2022-09-07T08:01:43.831Z,63.42
2022-09-07T08:04:11.626Z,63.27
2022-09-07T08:06:41.562Z,63.73
2022-09-07T08:09:08.037Z,63.35
2022-09-07T08:11:34.472Z,63.48
2022-09-07T08:14:00.848Z,63.48
2022-09-07T08:16:27.292Z,63.17
2022-09-07T08:18:53.726Z,62.92
2022-09-07T08:21:21.365Z,62.77
2022-09-07T08:23:48.495Z,62.00
2022-09-07T08:26:14.994Z,60.95
2022-09-07T08:28:42.350Z,61.16
2022-09-07T08:31:10.540Z,60.92
2022-09-07T08:33:37.579Z,60.80
2022-09-07T08:36:05.531Z,60.30
2022-09-07T08:38:33.574Z,60.78
2022-09-07T08:41:01.240Z,60.51
2022-09-07T08:43:33.918Z,60.53
2022-09-07T08:46:05.198Z,60.30
2022-09-07T08:48:32.891Z,60.06
2022-09-07T08:51:01.412Z,60.10
2022-09-07T08:53:28.793Z,60.52
2022-09-07T08:55:58.724Z,60.87
2022-09-07T08:58:48.257Z,61.00
2022-09-07T09:04:17.334Z,60.29
2022-09-07T09:06:51.239Z,60.38
2022-09-07T09:09:23.592Z,60.33
2022-09-07T09:11:57.076Z,60.58
2022-09-07T09:14:28.265Z,60.82
2022-09-07T09:16:58.317Z,59.93
2022-09-07T09:19:35.779Z,59.42
2022-09-07T09:22:18.150Z,59.29
2022-09-07T09:24:46.392Z,59.64
2022-09-07T09:27:14.385Z,59.32
2022-09-07T09:29:40.715Z,59.30
2022-09-07T09:32:21.910Z,59.38
2022-09-07T09:34:55.194Z,59.35
2022-09-07T09:37:32.619Z,59.02
2022-09-07T09:40:02.237Z,58.50
2022-09-07T09:42:32.730Z,58.92
2022-09-07T09:45:02.555Z,58.53
2022-09-07T09:47:31.009Z,58.28
2022-09-07T09:49:58.336Z,58.84
2022-09-07T09:52:29.734Z,59.14
2022-09-07T09:55:03.336Z,59.00
2022-09-07T09:59:04.771Z,58.92
2022-09-07T10:00:34.773Z,59.18
2022-09-07T10:05:50.247Z,59.88
2022-09-07T10:08:19.378Z,59.94
2022-09-07T10:10:54.349Z,59.67
2022-09-07T10:13:23.219Z,59.81
2022-09-07T10:15:51.794Z,60.37
2022-09-07T10:18:20.277Z,59.75
2022-09-07T10:20:46.624Z,58.92
2022-09-07T10:23:19.644Z,58.76
2022-09-07T10:25:46.028Z,58.58
2022-09-07T10:28:16.793Z,58.22
2022-09-07T10:30:52.817Z,58.11
2022-09-07T10:33:24.143Z,57.87
2022-09-07T10:35:53.650Z,57.58
2022-09-07T10:38:21.000Z,57.76
2022-09-07T10:40:50.037Z,57.57
2022-09-07T10:43:21.856Z,57.45
2022-09-07T10:45:59.435Z,57.60
2022-09-07T10:48:31.088Z,57.19
2022-09-07T10:51:03.113Z,57.49
2022-09-07T10:53:41.945Z,57.41
2022-09-07T10:56:10.584Z,58.76
2022-09-07T11:01:34.766Z,59.58
2022-09-07T11:04:10.291Z,59.43
2022-09-07T11:06:39.702Z,59.57
2022-09-07T11:09:17.171Z,59.59
2022-09-07T11:12:01.467Z,59.84
2022-09-07T11:14:29.284Z,59.58
2022-09-07T11:16:58.636Z,59.43
2022-09-07T11:19:35.391Z,59.14
2022-09-07T11:22:07.266Z,59.92
2022-09-07T11:24:37.293Z,58.30
2022-09-07T11:27:07.912Z,57.45
2022-09-07T11:29:38.128Z,57.54
2022-09-07T11:32:07.717Z,57.63
2022-09-07T11:34:38.860Z,57.88
2022-09-07T11:37:08.552Z,57.86
2022-09-07T11:39:38.982Z,58.03
2022-09-07T11:44:59.005Z,58.17
2022-09-07T11:47:28.794Z,58.32
2022-09-07T11:49:59.133Z,58.36
2022-09-07T11:52:31.870Z,58.18
2022-09-07T11:55:01.290Z,58.16
2022-09-07T11:57:33.935Z,58.53
2022-09-07T12:00:03.420Z,58.44
2022-09-07T12:02:58.870Z,58.08
2022-09-07T12:05:33.186Z,58.03
2022-09-07T12:08:07.372Z,59.28
2022-09-07T12:10:42.783Z,59.46
2022-09-07T12:13:26.555Z,60.11
2022-09-07T12:15:57.137Z,59.80
2022-09-07T12:18:32.207Z,59.99
2022-09-07T12:20:58.655Z,60.59
2022-09-07T12:23:27.471Z,60.84
2022-09-07T12:26:13.730Z,60.86
2022-09-07T12:28:52.774Z,61.55
2022-09-07T12:31:40.034Z,61.17
2022-09-07T12:34:21.282Z,61.70
2022-09-07T12:36:49.713Z,61.38
2022-09-07T12:39:19.489Z,59.20
2022-09-07T12:41:47.851Z,58.81
2022-09-07T12:44:16.543Z,59.12
2022-09-07T12:46:46.759Z,59.09
2022-09-07T12:49:23.022Z,58.92
2022-09-07T12:52:11.557Z,59.53
2022-09-07T12:54:43.797Z,59.66
2022-09-07T12:57:32.379Z,58.96
2022-09-07T13:00:03.295Z,58.79
2022-09-07T13:02:41.605Z,58.71
2022-09-07T13:05:16.102Z,58.49
2022-09-07T13:07:57.353Z,58.52
2022-09-07T13:10:30.437Z,58.52
2022-09-07T13:13:01.409Z,58.29
2022-09-07T13:28:31.982Z,57.97
2022-09-07T13:31:13.064Z,58.04
2022-09-07T13:33:44.692Z,57.95
2022-09-07T13:36:17.603Z,57.83
2022-09-07T13:38:43.954Z,58.27
2022-09-07T13:41:13.368Z,58.82
2022-09-07T13:43:39.993Z,59.43
2022-09-07T13:46:12.779Z,59.62
2022-09-07T13:48:41.513Z,59.35
2022-09-07T13:51:13.454Z,59.22
2022-09-07T13:53:45.475Z,58.83
2022-09-07T13:56:15.983Z,59.10
2022-09-07T13:58:43.737Z,59.36
2022-09-07T14:01:15.474Z,59.28
2022-09-07T14:03:45.563Z,59.07
2022-09-07T14:06:14.624Z,59.03
2022-09-07T14:08:41.203Z,58.91
2022-09-07T14:11:16.414Z,57.52
2022-09-07T14:13:42.831Z,57.37
2022-09-07T14:16:09.217Z,57.71
2022-09-07T14:18:35.627Z,58.27
2022-09-07T14:21:01.960Z,57.85
2022-09-07T14:23:30.540Z,57.78
2022-09-07T14:26:19.235Z,57.74
2022-09-07T14:28:46.435Z,57.67
2022-09-07T14:31:13.778Z,57.41
2022-09-07T14:33:46.598Z,57.39
2022-09-07T14:36:36.363Z,57.22
2022-09-07T14:39:05.510Z,56.92
2022-09-07T14:41:32.294Z,56.87
2022-09-07T14:43:59.308Z,57.15
2022-09-07T14:46:26.547Z,56.88
2022-09-07T14:48:55.280Z,56.71
2022-09-07T14:51:34.685Z,56.56
2022-09-07T14:54:04.971Z,56.68
2022-09-07T14:56:32.675Z,56.58
2022-09-07T14:58:59.224Z,56.48
2022-09-07T15:01:41.773Z,56.51
2022-09-07T15:04:16.620Z,56.64
2022-09-07T15:09:35.282Z,56.41
2022-09-07T15:12:03.061Z,56.48
2022-09-07T15:14:29.447Z,56.64
2022-09-07T15:19:44.158Z,56.44
2022-09-07T15:22:11.038Z,56.53
2022-09-07T15:24:38.657Z,56.38
2022-09-07T15:27:17.650Z,56.31
2022-09-07T15:29:44.156Z,56.33
2022-09-07T15:32:10.577Z,56.74
2022-09-07T15:34:37.106Z,56.73
2022-09-07T15:37:04.179Z,56.68
2022-09-07T15:39:52.809Z,57.95
2022-09-07T15:45:06.440Z,56.01
2022-09-07T15:47:51.919Z,56.14
2022-09-07T15:50:18.598Z,56.40
2022-09-07T15:52:46.479Z,56.54
2022-09-07T15:55:14.710Z,56.54
2022-09-07T15:57:59.224Z,56.44
2022-09-07T16:00:30.100Z,56.43
2022-09-07T16:03:11.946Z,56.46
2022-09-07T16:05:39.902Z,56.53
2022-09-07T16:10:55.159Z,56.38
2022-09-07T16:13:21.856Z,56.47
2022-09-07T16:15:48.189Z,56.27
2022-09-07T16:18:17.075Z,56.45
2022-09-07T16:20:43.921Z,56.52
2022-09-07T16:23:13.690Z,56.26
2022-09-07T16:25:40.935Z,57.06
2022-09-07T16:28:09.109Z,57.33
2022-09-07T16:30:39.378Z,57.35
2022-09-07T16:33:06.092Z,57.36
2022-09-07T16:35:32.738Z,57.42
2022-09-07T16:40:45.585Z,57.78
2022-09-07T16:43:13.405Z,58.15
2022-09-07T16:48:26.226Z,58.19
2022-09-07T16:50:58.748Z,58.98
2022-09-07T16:53:27.881Z,58.51
2022-09-07T16:56:00.384Z,57.64
2022-09-07T16:58:37.629Z,57.31
2022-09-07T17:01:04.838Z,57.18
2022-09-07T17:03:31.312Z,57.28
2022-09-07T17:05:59.607Z,57.51
2022-09-07T17:08:26.015Z,58.06
2022-09-07T17:10:57.872Z,57.46
2022-09-07T17:13:24.214Z,56.78
2022-09-07T17:15:51.866Z,56.56
2022-09-07T17:18:18.683Z,57.37
2022-09-07T17:20:53.656Z,56.21
2022-09-07T17:23:21.358Z,57.34
2022-09-07T17:25:47.878Z,57.30
2022-09-07T17:28:15.323Z,57.56
2022-09-07T17:30:41.795Z,57.81
2022-09-07T17:33:09.621Z,57.47
2022-09-07T17:35:37.541Z,57.72
2022-09-07T17:39:14.236Z,57.72
2022-09-07T17:40:50.239Z,57.63
2022-09-07T17:46:03.453Z,58.09
2022-09-07T17:48:33.216Z,58.29
2022-09-07T17:51:00.271Z,58.79
2022-09-07T17:53:26.755Z,58.51
2022-09-07T17:55:53.099Z,57.67
2022-09-07T17:58:19.441Z,57.99
2022-09-07T18:00:45.776Z,57.86
2022-09-07T18:03:12.384Z,58.22
2022-09-07T18:05:40.019Z,57.84
2022-09-07T18:08:06.341Z,57.80
2022-09-07T18:11:44.958Z,57.07
2022-09-07T18:13:25.545Z,57.93
2022-09-07T18:15:57.297Z,56.89
2022-09-07T18:18:23.662Z,56.63
2022-09-07T18:20:51.265Z,57.29
2022-09-07T18:23:17.589Z,57.78
2022-09-07T18:25:43.908Z,58.40
2022-09-07T18:30:56.488Z,57.84
2022-09-07T18:33:22.974Z,57.88
2022-09-07T18:35:50.560Z,58.28
2022-09-07T18:38:16.883Z,57.65
2022-09-07T18:40:43.207Z,57.80
2022-09-07T18:43:09.538Z,57.95
2022-09-07T18:45:35.914Z,58.09
2022-09-07T18:48:02.451Z,58.25
2022-09-07T18:50:28.750Z,58.48
2022-09-07T18:53:04.101Z,58.96
2022-09-07T18:55:33.848Z,58.50
2022-09-07T18:58:00.172Z,57.79
2022-09-07T19:00:26.498Z,57.62
2022-09-07T19:02:52.848Z,57.94
2022-09-07T19:08:07.083Z,56.92
2022-09-07T19:10:34.115Z,56.60
2022-09-07T19:13:00.439Z,57.71
2022-09-07T19:15:26.887Z,56.70
2022-09-07T19:17:53.198Z,57.53
2022-09-07T19:20:19.529Z,56.70
2022-09-07T19:22:45.849Z,56.55
2022-09-07T19:25:13.469Z,58.70
2022-09-07T19:27:39.785Z,58.23
2022-09-07T19:30:06.377Z,58.36
2022-09-07T19:32:32.703Z,58.08
2022-09-07T19:34:59.012Z,58.14
2022-09-07T19:37:25.896Z,58.08
2022-09-07T19:39:52.467Z,58.53
2022-09-07T19:42:20.447Z,58.42
2022-09-07T19:44:46.775Z,58.53
2022-09-07T19:47:13.213Z,58.59
2022-09-07T19:49:39.627Z,58.84
2022-09-07T19:52:05.949Z,58.62
2022-09-07T19:54:32.281Z,59.39
2022-09-07T19:56:58.581Z,58.43
2022-09-07T19:59:26.228Z,58.19
2022-09-07T20:01:52.524Z,58.70
2022-09-07T20:04:20.633Z,59.05
2022-09-07T20:06:50.569Z,58.32
2022-09-07T20:09:17.949Z,58.03
2022-09-07T20:11:46.821Z,58.55
2022-09-07T20:14:13.894Z,57.81
2022-09-07T20:16:41.751Z,57.84
2022-09-07T20:19:10.244Z,58.00
2022-09-07T20:21:36.699Z,58.24
2022-09-07T20:24:03.181Z,58.51
2022-09-07T20:26:29.522Z,57.95
2022-09-07T20:29:10.969Z,58.16
2022-09-07T20:31:44.477Z,58.05
2022-09-07T20:34:11.112Z,57.99
2022-09-07T20:36:37.575Z,58.43
2022-09-07T20:39:04.289Z,58.36
2022-09-07T20:41:32.679Z,58.43
2022-09-07T20:43:59.770Z,58.69
2022-09-07T20:46:26.550Z,58.44
2022-09-07T20:48:54.517Z,58.80
2022-09-07T20:51:21.245Z,59.02
2022-09-07T20:53:48.046Z,58.82
2022-09-07T20:56:15.198Z,58.69
2022-09-07T20:58:41.820Z,58.34
2022-09-07T21:01:08.275Z,59.05
2022-09-07T21:03:34.673Z,58.51
2022-09-07T21:06:02.683Z,58.73
2022-09-07T21:08:29.145Z,59.18
2022-09-07T21:10:55.457Z,59.12
2022-09-07T21:13:22.007Z,59.14
2022-09-07T21:15:48.352Z,58.36
2022-09-07T21:18:15.391Z,58.51
2022-09-07T21:20:42.325Z,58.41
2022-09-07T21:23:14.683Z,58.43
2022-09-07T21:25:42.325Z,58.62
2022-09-07T21:28:08.648Z,58.59
2022-09-07T21:30:34.979Z,58.56
2022-09-07T21:33:03.180Z,58.45
2022-09-07T21:35:29.773Z,58.61
2022-09-07T21:37:56.083Z,58.61
2022-09-07T21:40:23.712Z,58.64
2022-09-07T21:42:50.594Z,59.10
2022-09-07T21:45:17.106Z,58.14
2022-09-07T21:47:43.438Z,59.02
2022-09-07T21:50:09.827Z,58.56
2022-09-07T21:52:36.581Z,58.20
2022-09-07T21:55:03.025Z,58.51
2022-09-07T21:57:30.721Z,58.17
2022-09-07T21:59:57.050Z,58.32
2022-09-07T22:02:23.432Z,57.75
2022-09-07T22:04:49.817Z,58.58
2022-09-07T22:07:16.251Z,58.08
2022-09-07T22:09:42.563Z,57.78
2022-09-07T22:12:08.951Z,58.06
2022-09-07T22:14:36.532Z,57.51
2022-09-07T22:17:03.116Z,57.62
2022-09-07T22:19:29.417Z,57.84
2022-09-07T22:21:55.709Z,57.96
2022-09-07T22:24:22.018Z,57.68
2022-09-07T22:26:48.312Z,57.54
2022-09-07T22:29:14.613Z,57.94
2022-09-07T22:31:42.457Z,58.07
2022-09-07T22:34:09.363Z,58.68
2022-09-07T22:36:36.668Z,57.95
2022-09-07T22:39:04.931Z,57.39
2022-09-07T22:41:32.298Z,57.63
2022-09-07T22:43:59.093Z,58.82
2022-09-07T22:46:26.439Z,57.97
2022-09-07T22:48:55.087Z,57.65
2022-09-07T22:51:21.409Z,57.33
2022-09-07T22:53:47.707Z,57.77
2022-09-07T22:56:14.901Z,57.88
2022-09-07T22:58:45.009Z,58.03
2022-09-07T23:01:11.412Z,57.81
2022-09-07T23:03:37.967Z,57.61
2022-09-07T23:06:05.854Z,57.72
2022-09-07T23:08:32.145Z,57.70
2022-09-07T23:11:01.959Z,57.91
2022-09-07T23:13:28.292Z,58.23
2022-09-07T23:15:54.620Z,58.11
2022-09-07T23:18:21.072Z,58.18
2022-09-07T23:20:47.622Z,58.11
2022-09-07T23:23:15.764Z,58.06
2022-09-07T23:25:42.604Z,58.23
2022-09-07T23:28:10.655Z,58.56
2022-09-07T23:30:37.029Z,58.43
2022-09-07T23:33:03.592Z,58.72
2022-09-07T23:35:29.920Z,58.62
2022-09-07T23:37:56.385Z,58.27
2022-09-07T23:40:24.026Z,57.99
2022-09-07T23:42:50.326Z,57.73
2022-09-07T23:45:16.669Z,57.63
2022-09-07T23:47:42.970Z,58.21
2022-09-07T23:50:09.601Z,57.90
2022-09-07T23:52:36.090Z,57.99
2022-09-07T23:55:02.421Z,57.97
2022-09-07T23:57:30.904Z,57.98
2022-09-07T23:59:57.353Z,57.97
